createdAt,value
2018-07-21T00:00:46.725Z,7.05
2018-07-21T00:03:15.070Z,6.42
2018-07-21T00:05:43.396Z,6.25
2018-07-21T00:08:11.643Z,6.72
2018-07-21T00:10:39.942Z,6.25
2018-07-21T00:13:08.263Z,6.55
2018-07-21T00:15:36.572Z,6.05
2018-07-21T00:18:04.886Z,7.30
2018-07-21T00:20:33.377Z,6.47
2018-07-21T00:23:01.648Z,5.97
2018-07-21T00:25:29.954Z,5.85
2018-07-21T00:27:58.230Z,5.67
2018-07-21T00:30:26.498Z,5.60
2018-07-21T00:32:54.763Z,6.15
2018-07-21T00:35:23.038Z,6.33
2018-07-21T00:37:51.255Z,5.97
2018-07-21T00:40:19.643Z,5.35
2018-07-21T00:42:47.931Z,5.97
2018-07-21T00:45:16.216Z,5.47
2018-07-21T00:47:44.459Z,5.65
2018-07-21T00:50:12.743Z,6.97
2018-07-21T00:52:41.003Z,6.15
2018-07-21T00:55:09.272Z,5.78
2018-07-21T00:57:37.528Z,5.80
2018-07-21T01:00:05.842Z,5.62
2018-07-21T01:02:34.100Z,6.70
2018-07-21T01:05:02.347Z,6.65
2018-07-21T01:07:30.568Z,6.33
2018-07-21T01:09:58.869Z,6.47
2018-07-21T01:12:27.148Z,6.50
2018-07-21T01:14:55.385Z,7.08
2018-07-21T01:17:23.676Z,6.28
2018-07-21T01:19:52.654Z,6.12
2018-07-21T01:22:27.743Z,6.30
2018-07-21T01:24:56.023Z,5.95
2018-07-21T01:27:24.243Z,6.12
2018-07-21T01:29:52.578Z,6.20
2018-07-21T01:32:20.848Z,6.05
2018-07-21T01:34:49.181Z,5.83
2018-07-21T01:37:17.450Z,6.00
2018-07-21T01:39:45.702Z,6.40
2018-07-21T01:42:13.989Z,6.60
2018-07-21T01:44:42.298Z,6.83
2018-07-21T01:47:10.271Z,5.78
2018-07-21T01:49:38.279Z,7.53
2018-07-21T01:52:06.555Z,6.20
2018-07-21T01:54:34.816Z,6.47
2018-07-21T01:57:03.460Z,7.12
2018-07-21T01:59:31.709Z,7.55
2018-07-21T02:01:59.981Z,8.37
2018-07-21T02:04:28.261Z,8.40
2018-07-21T02:06:56.511Z,8.57
2018-07-21T02:09:32.230Z,8.13
2018-07-21T02:12:00.472Z,8.58
2018-07-21T02:14:28.717Z,8.75
2018-07-21T02:16:56.963Z,9.00
2018-07-21T02:19:25.315Z,13.05
2018-07-21T02:21:53.641Z,11.80
2018-07-21T02:24:21.925Z,9.10
2018-07-21T02:26:50.203Z,8.38
2018-07-21T02:29:18.494Z,8.03
2018-07-21T02:31:46.779Z,8.05
2018-07-21T02:34:15.064Z,8.60
2018-07-21T02:36:43.308Z,7.67
2018-07-21T02:39:12.427Z,8.83
2018-07-21T02:41:41.104Z,8.85
2018-07-21T02:44:09.412Z,8.40
2018-07-21T02:46:37.690Z,8.13
2018-07-21T02:49:05.986Z,8.33
2018-07-21T02:51:34.556Z,8.47
2018-07-21T02:54:02.911Z,8.13
2018-07-21T02:56:31.211Z,8.00
2018-07-21T02:58:59.468Z,8.30
2018-07-21T03:01:27.837Z,7.77
2018-07-21T03:03:56.140Z,7.70
2018-07-21T03:06:24.452Z,7.67
2018-07-21T03:08:52.717Z,7.23
2018-07-21T03:11:20.959Z,7.13
2018-07-21T03:13:49.266Z,7.60
2018-07-21T03:16:17.929Z,7.93
2018-07-21T03:18:46.135Z,8.03
2018-07-21T03:21:14.439Z,8.40
2018-07-21T03:23:42.693Z,8.20
2018-07-21T03:26:10.943Z,8.40
2018-07-21T03:28:39.212Z,7.60
2018-07-21T03:31:07.555Z,8.20
2018-07-21T03:33:35.880Z,8.03
2018-07-21T03:36:04.190Z,7.83
2018-07-21T03:38:32.536Z,8.50
2018-07-21T03:41:00.798Z,8.50
2018-07-21T03:43:29.109Z,9.97
2018-07-21T03:45:57.367Z,8.73
2018-07-21T03:48:25.631Z,8.00
2018-07-21T03:50:53.900Z,8.20
2018-07-21T03:53:22.111Z,7.60
2018-07-21T03:55:50.396Z,7.60
2018-07-21T03:58:18.680Z,7.73
2018-07-21T04:00:46.911Z,6.47
2018-07-21T04:03:15.168Z,7.30
2018-07-21T04:05:43.390Z,6.90
2018-07-21T04:08:11.671Z,7.17
2018-07-21T04:10:39.918Z,7.87
2018-07-21T04:13:07.965Z,7.10
2018-07-21T04:15:36.256Z,6.87
2018-07-21T04:18:04.253Z,8.10
2018-07-21T04:20:32.546Z,7.97
2018-07-21T04:23:00.821Z,7.00
2018-07-21T04:25:29.652Z,7.87
2018-07-21T04:27:57.864Z,7.20
2018-07-21T04:30:26.163Z,8.33
2018-07-21T04:32:54.406Z,7.80
2018-07-21T04:35:22.647Z,8.17
2018-07-21T04:37:50.932Z,8.27
2018-07-21T04:40:19.214Z,8.23
2018-07-21T04:42:47.497Z,8.60
2018-07-21T04:45:16.189Z,8.00
2018-07-21T04:47:44.140Z,7.03
2018-07-21T04:50:12.488Z,7.57
2018-07-21T04:52:40.720Z,7.50
2018-07-21T04:55:08.986Z,8.57
2018-07-21T04:57:37.000Z,7.33
2018-07-21T05:00:05.885Z,7.43
2018-07-21T05:02:34.163Z,7.17
2018-07-21T05:05:02.445Z,8.87
2018-07-21T05:07:30.778Z,7.87
2018-07-21T05:09:58.972Z,7.07
2018-07-21T05:12:27.248Z,6.93
2018-07-21T05:14:55.615Z,6.87
2018-07-21T05:17:23.917Z,7.10
2018-07-21T05:19:52.185Z,7.13
2018-07-21T05:22:20.471Z,7.27
2018-07-21T05:24:48.807Z,8.73
2018-07-21T05:27:16.828Z,7.30
2018-07-21T05:29:45.144Z,7.70
2018-07-21T05:32:13.412Z,8.23
2018-07-21T05:34:41.732Z,7.67
2018-07-21T05:37:10.022Z,7.30
2018-07-21T05:39:38.352Z,8.73
2018-07-21T05:42:06.614Z,8.60
2018-07-21T05:44:34.952Z,8.00
2018-07-21T05:47:03.205Z,8.57
2018-07-21T05:49:31.493Z,7.83
2018-07-21T05:51:59.736Z,7.20
2018-07-21T05:54:27.978Z,7.10
2018-07-21T05:56:56.276Z,7.87
2018-07-21T05:59:24.583Z,6.93
2018-07-21T06:01:52.585Z,7.77
2018-07-21T06:04:20.844Z,7.67
2018-07-21T06:06:49.191Z,7.37
2018-07-21T06:09:17.438Z,8.47
2018-07-21T06:11:45.712Z,7.33
2018-07-21T06:14:13.943Z,7.73
2018-07-21T06:16:42.223Z,8.20
2018-07-21T06:19:10.473Z,7.67
2018-07-21T06:21:38.740Z,8.10
2018-07-21T06:24:07.026Z,8.47
2018-07-21T06:26:35.058Z,7.83
2018-07-21T06:29:03.396Z,7.92
2018-07-21T06:31:31.665Z,7.87
2018-07-21T06:34:00.408Z,8.23
2018-07-21T06:36:29.353Z,8.70
2018-07-21T06:38:57.660Z,8.33
2018-07-21T06:41:25.896Z,7.70
2018-07-21T06:43:54.206Z,7.92
2018-07-21T06:46:22.509Z,7.50
2018-07-21T06:48:50.955Z,7.67
2018-07-21T06:51:19.342Z,7.10
2018-07-21T06:53:47.616Z,7.85
2018-07-21T06:56:15.901Z,8.53
2018-07-21T06:58:44.123Z,8.13
2018-07-21T07:01:12.379Z,7.90
2018-07-21T07:03:40.682Z,7.92
2018-07-21T07:06:08.996Z,7.60
2018-07-21T07:08:37.334Z,9.28
2018-07-21T07:11:05.695Z,8.48
2018-07-21T07:13:33.999Z,9.30
2018-07-21T07:16:02.776Z,8.60
2018-07-21T07:18:31.098Z,9.43
2018-07-21T07:20:59.404Z,9.00
2018-07-21T07:23:27.720Z,8.50
2018-07-21T07:25:55.982Z,8.20
2018-07-21T07:28:23.975Z,8.95
2018-07-21T07:30:52.252Z,9.13
2018-07-21T07:33:20.585Z,9.43
2018-07-21T07:35:48.875Z,9.20
2018-07-21T07:38:17.176Z,9.58
2018-07-21T07:40:45.475Z,8.83
2018-07-21T07:43:13.714Z,8.60
2018-07-21T07:45:42.025Z,9.25
2018-07-21T07:48:10.312Z,8.55
2018-07-21T07:50:38.639Z,8.88
2018-07-21T07:53:06.922Z,8.48
2018-07-21T07:55:35.197Z,9.40
2018-07-21T07:58:04.221Z,9.93
2018-07-21T08:00:33.958Z,9.08
2018-07-21T08:03:02.532Z,8.58
2018-07-21T08:05:31.111Z,9.68
2018-07-21T08:07:59.454Z,9.38
2018-07-21T08:10:28.039Z,8.58
2018-07-21T08:12:56.319Z,9.10
2018-07-21T08:15:24.616Z,10.10
2018-07-21T08:17:52.932Z,9.70
2018-07-21T08:20:21.205Z,8.58
2018-07-21T08:22:49.611Z,9.63
2018-07-21T08:25:17.943Z,9.73
2018-07-21T08:27:46.288Z,10.05
2018-07-21T08:30:14.573Z,10.13
2018-07-21T08:32:42.883Z,9.95
2018-07-21T08:35:11.267Z,10.80
2018-07-21T08:37:39.597Z,9.65
2018-07-21T08:40:09.410Z,10.53
2018-07-21T08:42:38.521Z,10.35
2018-07-21T08:45:07.638Z,8.78
2018-07-21T08:47:37.664Z,9.78
2018-07-21T08:50:06.215Z,9.30
2018-07-21T08:52:34.466Z,9.15
2018-07-21T08:55:02.771Z,10.05
2018-07-21T08:57:31.059Z,9.10
2018-07-21T08:59:59.370Z,10.50
2018-07-21T09:02:27.728Z,10.23
2018-07-21T09:04:56.024Z,11.05
2018-07-21T09:07:24.352Z,10.53
2018-07-21T09:09:52.718Z,10.18
2018-07-21T09:12:21.002Z,10.58
2018-07-21T09:14:49.283Z,10.40
2018-07-21T09:17:20.325Z,10.63
2018-07-21T09:19:49.822Z,11.55
2018-07-21T09:22:18.304Z,11.68
2018-07-21T09:24:46.988Z,10.43
2018-07-21T09:27:15.305Z,10.50
2018-07-21T09:29:43.629Z,10.78
2018-07-21T09:32:12.238Z,11.57
2018-07-21T09:34:40.550Z,9.65
2018-07-21T09:37:09.114Z,9.30
2018-07-21T09:39:38.837Z,10.40
2018-07-21T09:42:07.183Z,9.63
2018-07-21T09:44:35.531Z,8.83
2018-07-21T09:47:04.134Z,9.50
2018-07-21T09:49:32.396Z,9.65
2018-07-21T09:52:00.644Z,10.32
2018-07-21T09:54:28.950Z,9.60
2018-07-21T09:56:57.251Z,8.35
2018-07-21T09:59:25.588Z,8.88
2018-07-21T10:01:53.922Z,9.48
2018-07-21T10:04:22.778Z,10.20
2018-07-21T10:06:51.150Z,9.35
2018-07-21T10:09:19.617Z,10.50
2018-07-21T10:11:47.950Z,10.00
2018-07-21T10:14:16.339Z,10.18
2018-07-21T10:16:44.671Z,10.25
2018-07-21T10:19:12.890Z,9.63
2018-07-21T10:21:41.183Z,10.03
2018-07-21T10:24:15.187Z,8.43
2018-07-21T10:26:49.169Z,9.05
2018-07-21T10:29:18.293Z,8.63
2018-07-21T10:31:46.861Z,9.65
2018-07-21T10:34:15.651Z,10.38
2018-07-21T10:36:44.404Z,10.53
2018-07-21T10:39:14.683Z,9.48
2018-07-21T10:41:43.278Z,10.32
2018-07-21T10:44:11.566Z,9.75
2018-07-21T10:46:39.880Z,10.28
2018-07-21T10:49:08.333Z,9.38
2018-07-21T10:51:36.646Z,7.50
2018-07-21T10:54:05.541Z,7.92
2018-07-21T10:56:33.881Z,7.55
2018-07-21T10:59:02.129Z,8.98
2018-07-21T11:01:30.212Z,8.50
2018-07-21T11:03:58.611Z,8.35
2018-07-21T11:06:26.945Z,7.65
2018-07-21T11:08:55.220Z,8.90
2018-07-21T11:11:23.874Z,8.60
2018-07-21T11:13:52.210Z,10.28
2018-07-21T11:16:20.475Z,9.78
2018-07-21T11:18:48.487Z,10.43
2018-07-21T11:21:16.831Z,10.18
2018-07-21T11:23:45.271Z,10.23
2018-07-21T11:26:13.975Z,9.20
2018-07-21T11:28:42.302Z,8.75
2018-07-21T11:31:10.640Z,8.48
2018-07-21T11:33:38.727Z,10.25
2018-07-21T11:36:07.329Z,10.38
2018-07-21T11:38:42.321Z,8.05
2018-07-21T11:41:10.351Z,9.70
2018-07-21T11:43:38.809Z,7.90
2018-07-21T11:46:07.203Z,8.53
2018-07-21T11:48:36.456Z,8.55
2018-07-21T11:51:04.932Z,7.80
2018-07-21T11:53:33.491Z,8.00
2018-07-21T11:56:01.820Z,7.90
2018-07-21T11:58:30.335Z,8.78
2018-07-21T12:00:59.159Z,7.78
2018-07-21T12:03:28.210Z,7.37
2018-07-21T12:05:56.693Z,7.80
2018-07-21T12:08:24.949Z,7.60
2018-07-21T12:10:53.321Z,7.15
2018-07-21T12:13:22.305Z,7.50
2018-07-21T12:15:50.660Z,7.47
2018-07-21T12:18:18.651Z,7.17
2018-07-21T12:20:46.963Z,7.10
2018-07-21T12:23:15.350Z,7.75
2018-07-21T12:25:43.604Z,7.70
2018-07-21T12:28:12.006Z,8.70
2018-07-21T12:30:40.287Z,7.85
2018-07-21T12:33:08.591Z,7.20
2018-07-21T12:35:36.854Z,7.35
2018-07-21T12:38:05.138Z,7.12
2018-07-21T12:40:33.428Z,7.42
2018-07-21T12:43:01.781Z,7.25
2018-07-21T12:45:30.114Z,6.50
2018-07-21T12:47:58.654Z,7.22
2018-07-21T12:50:26.893Z,7.53
2018-07-21T12:52:55.156Z,8.45
2018-07-21T12:55:23.444Z,7.50
2018-07-21T12:57:52.142Z,8.05
2018-07-21T13:00:20.483Z,8.83
2018-07-21T13:02:48.760Z,8.55
2018-07-21T13:05:17.232Z,6.97
2018-07-21T13:07:45.726Z,8.35
2018-07-21T13:10:13.992Z,7.28
2018-07-21T13:12:42.269Z,7.50
2018-07-21T13:15:10.545Z,7.05
2018-07-21T13:17:38.839Z,6.83
2018-07-21T13:20:07.291Z,7.03
2018-07-21T13:22:35.544Z,7.55
2018-07-21T13:25:03.845Z,7.25
2018-07-21T13:27:32.151Z,6.35
2018-07-21T13:30:00.648Z,7.60
2018-07-21T13:32:29.014Z,6.80
2018-07-21T13:34:57.345Z,7.20
2018-07-21T13:37:26.028Z,6.62
2018-07-21T13:39:54.294Z,7.20
2018-07-21T13:42:22.701Z,6.90
2018-07-21T13:44:51.005Z,7.17
2018-07-21T13:47:19.270Z,6.65
2018-07-21T13:49:47.579Z,6.78
2018-07-21T13:52:15.842Z,6.62
2018-07-21T13:54:44.367Z,6.70
2018-07-21T13:57:12.457Z,7.30
2018-07-21T13:59:41.154Z,7.45
2018-07-21T14:02:09.475Z,6.67
2018-07-21T14:04:37.775Z,6.40
2018-07-21T14:07:06.353Z,6.95
2018-07-21T14:09:34.356Z,7.58
2018-07-21T14:12:03.389Z,6.22
2018-07-21T14:14:31.617Z,7.28
2018-07-21T14:17:03.223Z,6.72
2018-07-21T14:19:31.532Z,7.80
2018-07-21T14:21:59.852Z,6.47
2018-07-21T14:24:28.181Z,6.83
2018-07-21T14:26:56.492Z,6.42
2018-07-21T14:29:24.782Z,6.97
2018-07-21T14:31:53.071Z,6.92
2018-07-21T14:34:21.339Z,7.45
2018-07-21T14:36:49.564Z,6.55
2018-07-21T14:39:17.824Z,7.40
2018-07-21T14:41:46.167Z,6.67
2018-07-21T14:44:14.120Z,6.53
2018-07-21T14:46:42.369Z,7.28
2018-07-21T14:49:10.381Z,6.70
2018-07-21T14:51:38.688Z,7.45
2018-07-21T14:54:07.139Z,6.65
2018-07-21T14:56:35.480Z,7.53
2018-07-21T14:59:03.625Z,7.03
2018-07-21T15:01:31.940Z,7.70
2018-07-21T15:04:01.390Z,7.20
2018-07-21T15:06:29.662Z,7.03
2018-07-21T15:08:57.943Z,7.50
2018-07-21T15:11:26.176Z,7.58
2018-07-21T15:13:54.425Z,7.10
2018-07-21T15:16:22.673Z,6.80
2018-07-21T15:18:51.089Z,7.40
2018-07-21T15:21:19.393Z,6.83
2018-07-21T15:23:47.714Z,7.17
2018-07-21T15:26:15.999Z,6.97
2018-07-21T15:28:45.152Z,7.35
2018-07-21T15:31:13.463Z,6.00
2018-07-21T15:33:41.769Z,5.15
2018-07-21T15:36:09.822Z,4.60
2018-07-21T15:38:38.080Z,4.28
2018-07-21T15:41:06.388Z,3.90
2018-07-21T15:43:34.712Z,4.60
2018-07-21T15:46:03.120Z,4.83
2018-07-21T15:48:31.511Z,5.50
2018-07-21T15:51:00.376Z,5.53
2018-07-21T15:53:28.627Z,5.67
2018-07-21T15:55:56.898Z,7.05
2018-07-21T15:58:25.253Z,6.83
2018-07-21T16:00:53.535Z,6.67
2018-07-21T16:03:21.865Z,7.47
2018-07-21T16:05:50.126Z,7.85
2018-07-21T16:08:18.400Z,7.58
2018-07-21T16:10:46.627Z,7.58
2018-07-21T16:13:14.731Z,8.55
2018-07-21T16:15:43.003Z,8.25
2018-07-21T16:18:11.303Z,8.58
2018-07-21T16:20:39.970Z,9.43
2018-07-21T16:23:08.208Z,9.20
2018-07-21T16:25:36.695Z,9.23
2018-07-21T16:28:05.893Z,8.80
2018-07-21T16:30:34.160Z,8.60
2018-07-21T16:33:02.178Z,8.55
2018-07-21T16:35:30.469Z,8.58
2018-07-21T16:37:58.715Z,9.28
2018-07-21T16:40:26.960Z,9.93
2018-07-21T16:42:55.252Z,9.15
2018-07-21T16:45:23.536Z,8.38
2018-07-21T16:47:51.860Z,9.40
2018-07-21T16:50:20.091Z,8.63
2018-07-21T16:52:49.112Z,8.43
2018-07-21T16:55:17.403Z,8.88
2018-07-21T16:57:45.698Z,8.38
2018-07-21T17:00:14.000Z,9.95
2018-07-21T17:02:42.237Z,8.98
2018-07-21T17:05:10.573Z,16.70
2018-07-21T17:07:38.852Z,12.05
2018-07-21T17:10:07.090Z,11.03
2018-07-21T17:12:35.114Z,14.30
2018-07-21T17:15:03.448Z,11.43
2018-07-21T17:17:31.736Z,10.65
2018-07-21T17:20:00.008Z,11.28
2018-07-21T17:22:28.295Z,9.73
2018-07-21T17:24:56.575Z,10.18
2018-07-21T17:27:24.911Z,9.98
2018-07-21T17:29:53.635Z,13.62
2018-07-21T17:32:21.791Z,11.68
2018-07-21T17:34:50.124Z,12.05
2018-07-21T17:37:18.402Z,12.53
2018-07-21T17:39:46.674Z,11.10
2018-07-21T17:42:14.906Z,12.53
2018-07-21T17:44:43.212Z,12.68
2018-07-21T17:47:11.491Z,12.47
2018-07-21T17:49:39.738Z,12.88
2018-07-21T17:52:08.034Z,12.47
2018-07-21T17:54:36.302Z,11.22
2018-07-21T17:57:04.606Z,12.18
2018-07-21T17:59:32.905Z,12.15
2018-07-21T18:02:01.190Z,13.00
2018-07-21T18:04:29.446Z,11.68
2018-07-21T18:06:58.152Z,11.35
2018-07-21T18:09:26.416Z,10.85
2018-07-21T18:11:54.672Z,10.53
2018-07-21T18:14:22.954Z,11.00
2018-07-21T18:16:51.188Z,12.75
2018-07-21T18:19:19.465Z,13.03
2018-07-21T18:21:47.764Z,10.48
2018-07-21T18:24:16.113Z,10.28
2018-07-21T18:26:44.373Z,10.38
2018-07-21T18:29:12.409Z,8.88
2018-07-21T18:31:40.708Z,9.35
2018-07-21T18:34:09.569Z,8.63
2018-07-21T18:36:37.824Z,9.03
2018-07-21T18:39:08.419Z,9.95
2018-07-21T18:41:36.663Z,9.63
2018-07-21T18:44:05.222Z,9.70
2018-07-21T18:46:33.491Z,9.78
2018-07-21T18:49:02.079Z,9.38
2018-07-21T18:51:30.333Z,9.73
2018-07-21T18:53:58.632Z,8.83
2018-07-21T18:56:26.925Z,9.38
2018-07-21T18:58:55.174Z,10.03
2018-07-21T19:01:23.425Z,9.28
2018-07-21T19:03:51.729Z,9.68
2018-07-21T19:06:20.016Z,10.05
2018-07-21T19:08:53.851Z,11.45
2018-07-21T19:11:22.133Z,11.60
2018-07-21T19:13:50.390Z,10.55
2018-07-21T19:16:23.954Z,10.98
2018-07-21T19:18:52.300Z,10.65
2018-07-21T19:21:21.650Z,10.32
2018-07-21T19:23:50.714Z,9.78
2018-07-21T19:26:24.534Z,9.45
2018-07-21T19:28:53.033Z,10.23
2018-07-21T19:31:21.483Z,10.38
2018-07-21T19:33:49.752Z,8.50
2018-07-21T19:36:18.092Z,10.28
2018-07-21T19:38:46.431Z,9.95
2018-07-21T19:41:19.960Z,11.05
2018-07-21T19:43:48.255Z,10.30
2018-07-21T19:46:16.516Z,10.48
2018-07-21T19:48:44.746Z,9.98
2018-07-21T19:51:13.660Z,10.93
2018-07-21T19:53:41.983Z,10.80
2018-07-21T19:56:10.285Z,10.80
2018-07-21T19:58:38.531Z,11.75
2018-07-21T20:01:06.785Z,11.10
2018-07-21T20:03:35.023Z,11.25
2018-07-21T20:06:03.759Z,10.13
2018-07-21T20:08:32.045Z,10.45
2018-07-21T20:11:00.280Z,11.53
2018-07-21T20:13:28.539Z,11.50
2018-07-21T20:15:56.807Z,10.95
2018-07-21T20:18:25.069Z,12.25
2018-07-21T20:20:53.354Z,12.75
2018-07-21T20:23:21.631Z,14.10
2018-07-21T20:25:50.884Z,12.28
2018-07-21T20:28:19.175Z,15.88
2018-07-21T20:30:47.444Z,14.35
2018-07-21T20:33:15.712Z,12.90
2018-07-21T20:35:44.004Z,12.70
2018-07-21T20:38:12.948Z,13.00
2018-07-21T20:40:41.178Z,14.30
2018-07-21T20:43:09.458Z,16.67
2018-07-21T20:45:38.099Z,16.57
2018-07-21T20:48:06.486Z,17.35
2018-07-21T20:50:34.741Z,16.23
2018-07-21T20:53:02.983Z,16.17
2018-07-21T20:55:31.313Z,16.12
2018-07-21T20:58:02.129Z,17.35
2018-07-21T21:00:34.376Z,15.78
2018-07-21T21:03:02.689Z,17.00
2018-07-21T21:05:30.943Z,15.83
2018-07-21T21:07:59.217Z,16.48
2018-07-21T21:10:27.464Z,17.05
2018-07-21T21:12:55.743Z,15.55
2018-07-21T21:15:24.072Z,15.95
2018-07-21T21:17:52.375Z,16.27
2018-07-21T21:20:20.638Z,15.60
2018-07-21T21:22:48.952Z,16.90
2018-07-21T21:25:17.129Z,16.37
2018-07-21T21:27:45.410Z,17.50
2018-07-21T21:30:13.733Z,16.50
2018-07-21T21:32:42.120Z,17.37
2018-07-21T21:35:10.476Z,16.23
2018-07-21T21:37:38.743Z,15.95
2018-07-21T21:40:06.996Z,16.62
2018-07-21T21:42:35.326Z,15.95
2018-07-21T21:45:03.551Z,15.38
2018-07-21T21:47:31.924Z,15.98
2018-07-21T21:50:00.152Z,15.00
2018-07-21T21:52:28.439Z,14.80
2018-07-21T21:54:56.746Z,14.20
2018-07-21T21:57:24.988Z,14.87
2018-07-21T21:59:53.250Z,15.30
2018-07-21T22:02:21.607Z,15.38
2018-07-21T22:04:49.969Z,15.60
2018-07-21T22:07:18.250Z,15.80
2018-07-21T22:09:46.565Z,15.58
2018-07-21T22:12:14.832Z,14.80
2018-07-21T22:14:43.172Z,16.32
2018-07-21T22:17:11.424Z,15.68
2018-07-21T22:19:39.696Z,17.48
2018-07-21T22:22:08.008Z,14.80
2018-07-21T22:24:36.337Z,15.80
2018-07-21T22:27:04.690Z,14.87
2018-07-21T22:29:32.991Z,15.75
2018-07-21T22:32:01.256Z,15.65
2018-07-21T22:34:29.527Z,16.23
2018-07-21T22:36:57.832Z,14.93
2018-07-21T22:39:26.103Z,16.80
2018-07-21T22:41:54.373Z,15.63
2018-07-21T22:44:22.667Z,15.60
2018-07-21T22:46:50.941Z,15.50
2018-07-21T22:49:18.930Z,15.90
2018-07-21T22:51:47.242Z,14.45
2018-07-21T22:54:15.501Z,14.10
2018-07-21T22:56:43.761Z,15.35
2018-07-21T22:59:12.032Z,16.25
2018-07-21T23:01:40.776Z,16.17
2018-07-21T23:04:09.060Z,16.57
2018-07-21T23:06:37.387Z,16.93
2018-07-21T23:09:06.712Z,16.60
2018-07-21T23:11:35.020Z,16.90
2018-07-21T23:14:03.257Z,15.60
2018-07-21T23:16:31.560Z,16.85
2018-07-21T23:19:00.732Z,16.07
2018-07-21T23:21:29.011Z,15.80
2018-07-21T23:23:57.279Z,16.35
2018-07-21T23:26:25.563Z,16.67
2018-07-21T23:28:53.889Z,16.60
2018-07-21T23:31:21.908Z,15.35
2018-07-21T23:33:50.786Z,14.87
2018-07-21T23:36:19.072Z,15.13
2018-07-21T23:38:47.809Z,14.20
2018-07-21T23:41:15.803Z,14.20
2018-07-21T23:43:44.091Z,15.18
2018-07-21T23:46:12.433Z,14.90
2018-07-21T23:48:40.698Z,14.53
2018-07-21T23:51:08.959Z,15.10
2018-07-21T23:53:37.208Z,14.45
2018-07-21T23:56:05.893Z,15.05
2018-07-21T23:58:34.148Z,14.85
